Time;durP1;ratioP1;P1;durP2;ratioP2;P2;SDS_P1;SDS_P2;PMS_P1;PMS_P2;Temp;Humidity;BMP_temperature;BMP_pressure;BME280_temperature;BME280_humidity;BME280_pressure;Samples;Min_cycle;Max_cycle;Signal;HPM_P1;HPM_P2
2022/01/03 00:02:20;;;;;;;1.05;0.60;;;;;;;8.36;100.00;100240.94;6172727;28;20043;-76
2022/01/03 00:05:22;;;;;;;0.70;0.60;;;;;;;8.40;100.00;100252.06;6166236;28;20043;-75
2022/01/03 00:08:24;;;;;;;1.35;1.00;;;;;;;8.45;100.00;100252.69;6163704;28;20051;-75
2022/01/03 00:11:27;;;;;;;3.88;0.80;;;;;;;8.54;100.00;100233.00;6171907;28;20055;-76
2022/01/03 00:14:31;;;;;;;1.92;1.45;;;;;;;8.61;100.00;100248.31;6166435;28;20054;-78
2022/01/03 00:17:32;;;;;;;1.10;1.00;;;;;;;8.63;100.00;100240.41;6163785;28;20569;-74
2022/01/03 00:20:33;;;;;;;1.33;0.85;;;;;;;8.69;100.00;100234.81;6166943;28;20047;-75
2022/01/03 00:23:38;;;;;;;2.50;1.20;;;;;;;8.74;100.00;100266.00;6164064;28;20143;-74
2022/01/03 00:26:45;;;;;;;1.08;1.00;;;;;;;8.81;100.00;100260.38;6171117;28;20525;-77
2022/01/03 00:29:51;;;;;;;1.25;0.90;;;;;;;8.86;100.00;100270.59;6168676;28;20058;-77
2022/01/03 00:32:53;;;;;;;2.45;1.13;;;;;;;8.95;100.00;100284.97;6170656;28;20044;-77
2022/01/03 00:35:58;;;;;;;0.75;0.55;;;;;;;9.03;100.00;100312.44;6169680;28;20047;-81
2022/01/03 00:39:00;;;;;;;1.85;0.90;;;;;;;9.05;100.00;100296.66;6167351;28;20137;-79
2022/01/03 00:42:04;;;;;;;1.23;0.70;;;;;;;8.97;100.00;100294.44;6165550;28;20411;-78
2022/01/03 00:45:06;;;;;;;2.35;0.82;;;;;;;9.00;100.00;100310.00;6166214;28;20043;-77
2022/01/03 00:48:09;;;;;;;0.77;0.57;;;;;;;8.93;100.00;100321.75;6165911;28;20074;-78
2022/01/03 00:51:13;;;;;;;2.40;0.40;;;;;;;8.88;100.00;100313.28;6163854;28;20050;-77
2022/01/03 00:54:15;;;;;;;0.40;0.30;;;;;;;8.93;100.00;100324.34;6166903;28;20066;-77
2022/01/03 00:57:29;;;;;;;0.30;0.22;;;;;;;8.86;100.00;100336.97;6163566;28;20043;-76
2022/01/03 01:00:36;;;;;;;0.20;0.20;;;;;;;8.84;100.00;100353.66;6166098;28;20622;-77
2022/01/03 01:03:40;;;;;;;0.10;0.10;;;;;;;8.88;100.00;100344.72;6167887;28;20053;-77
2022/01/03 01:06:42;;;;;;;0.10;0.10;;;;;;;8.81;100.00;100367.78;6179889;28;20523;-77
2022/01/03 01:09:50;;;;;;;0.17;0.10;;;;;;;8.82;100.00;100371.25;6204004;28;20053;-77
2022/01/03 01:12:54;;;;;;;0.10;0.10;;;;;;;8.76;100.00;100385.50;6190114;28;20047;-81
2022/01/03 01:15:55;;;;;;;0.10;0.10;;;;;;;8.70;100.00;100412.03;6184220;28;20050;-77
2022/01/03 01:18:57;;;;;;;0.10;0.10;;;;;;;8.70;100.00;100412.03;6197622;28;20054;-77
2022/01/03 01:21:58;;;;;;;0.10;0.10;;;;;;;8.68;100.00;100415.66;6210956;28;20062;-79
2022/01/03 01:25:22;;;;;;;0.10;0.10;;;;;;;8.60;100.00;100411.66;6210138;28;20054;-79
2022/01/03 01:28:24;;;;;;;0.10;0.10;;;;;;;8.58;100.00;100428.34;6193822;28;20101;-79
2022/01/03 01:31:27;;;;;;;0.10;0.10;;;;;;;8.61;100.00;100421.19;6183243;28;20495;-78
2022/01/03 01:34:32;;;;;;;0.20;0.20;;;;;;;8.60;100.00;100424.75;6189498;28;20059;-79
2022/01/03 01:37:35;;;;;;;0.52;0.15;;;;;;;8.62;100.00;100427.28;6209021;28;20053;-78
2022/01/03 01:40:44;;;;;;;0.60;0.35;;;;;;;8.60;100.00;100432.59;6196024;28;20061;-78
2022/01/03 01:43:48;;;;;;;0.90;0.50;;;;;;;8.63;100.00;100463.88;6210574;28;20054;-78
2022/01/03 01:46:53;;;;;;;0.10;0.10;;;;;;;8.59;100.00;100457.09;6209054;28;20053;-76
2022/01/03 01:49:57;;;;;;;1.88;0.40;;;;;;;8.63;100.00;100455.19;6202323;28;20530;-77
2022/01/03 01:53:00;;;;;;;0.95;0.73;;;;;;;8.64;100.00;100455.09;6201449;28;20460;-78
2022/01/03 01:56:03;;;;;;;2.70;0.43;;;;;;;8.70;100.00;100474.91;6209670;28;20058;-78
2022/01/03 01:59:15;;;;;;;1.60;0.50;;;;;;;8.74;100.00;100463.34;6208628;28;20502;-78
2022/01/03 02:02:22;;;;;;;7.05;0.60;;;;;;;8.80;100.00;100470.03;6184286;28;20047;-79
2022/01/03 02:05:30;;;;;;;0.80;0.38;;;;;;;8.79;100.00;100484.06;6185959;28;20050;-78
2022/01/03 02:08:38;;;;;;;1.25;0.25;;;;;;;8.80;100.00;100485.75;6185523;28;20055;-79
2022/01/03 02:11:50;;;;;;;2.72;0.50;;;;;;;8.75;100.00;100486.00;6184936;28;20133;-79
2022/01/03 02:14:57;;;;;;;1.73;0.40;;;;;;;8.74;100.00;100479.06;6194235;28;20104;-78
2022/01/03 02:17:59;;;;;;;3.33;0.30;;;;;;;8.67;100.00;100489.91;6207986;28;20050;-79
2022/01/03 02:21:02;;;;;;;2.90;0.70;;;;;;;8.69;100.00;100494.16;6195801;28;20570;-79
2022/01/03 02:24:04;;;;;;;0.43;0.43;;;;;;;8.71;100.00;100494.06;6198410;28;20050;-80
2022/01/03 02:27:05;;;;;;;1.15;0.93;;;;;;;8.67;100.00;100498.63;6207518;28;20046;-78
2022/01/03 02:30:10;;;;;;;0.55;0.50;;;;;;;8.62;100.00;100529.44;6196433;28;20114;-80
2022/01/03 02:33:12;;;;;;;3.60;0.65;;;;;;;8.59;100.00;100511.25;6194084;28;20058;-78
2022/01/03 02:36:16;;;;;;;4.75;0.70;;;;;;;8.59;100.00;100516.50;6205185;28;20046;-81
2022/01/03 02:39:17;;;;;;;1.98;0.40;;;;;;;8.58;100.00;100514.78;6211514;28;20054;-79
2022/01/03 02:42:24;;;;;;;4.72;1.55;;;;;;;8.68;100.00;100518.66;6207263;28;20062;-79
2022/01/03 02:45:26;;;;;;;4.78;0.60;;;;;;;8.59;100.00;100527.81;6203773;28;20109;-79
2022/01/03 02:48:28;;;;;;;3.83;1.48;;;;;;;8.59;100.00;100519.13;6204089;28;20054;-79
2022/01/03 02:51:32;;;;;;;0.70;0.47;;;;;;;8.57;100.00;100527.03;6204850;28;20058;-79
2022/01/03 02:54:33;;;;;;;0.52;0.43;;;;;;;8.53;100.00;100514.16;6204211;28;20490;-79
2022/01/03 02:57:36;;;;;;;0.60;0.35;;;;;;;8.53;100.00;100520.25;6204353;28;20047;-78
2022/01/03 03:00:44;;;;;;;2.13;0.43;;;;;;;8.53;100.00;100512.38;6193647;28;20051;-79
2022/01/03 03:03:50;;;;;;;4.53;0.93;;;;;;;8.54;100.00;100516.72;6198759;28;20057;-78
2022/01/03 03:06:53;;;;;;;0.70;0.40;;;;;;;8.56;100.00;100520.09;6204340;28;20414;-79
2022/01/03 03:09:55;;;;;;;2.13;1.00;;;;;;;8.65;100.00;100516.19;6206508;28;20046;-79
2022/01/03 03:12:56;;;;;;;4.55;0.73;;;;;;;8.69;100.00;100516.91;6207306;28;20061;-79
2022/01/03 03:15:59;;;;;;;1.98;0.65;;;;;;;8.72;100.00;100514.09;6204444;28;20486;-78
2022/01/03 03:19:01;;;;;;;3.88;1.08;;;;;;;8.77;100.00;100517.38;6206688;28;20482;-80
2022/01/03 03:22:04;;;;;;;2.05;0.65;;;;;;;8.78;100.00;100519.06;6207985;28;20050;-79
2022/01/03 03:25:07;;;;;;;2.35;0.47;;;;;;;8.79;100.00;100513.72;6206004;28;20051;-80
2022/01/03 03:28:11;;;;;;;2.22;0.82;;;;;;;8.74;100.00;100512.28;6196920;28;20054;-79
2022/01/03 03:31:12;;;;;;;0.93;0.55;;;;;;;8.76;100.00;100518.28;6190845;28;20047;-79
2022/01/03 03:34:13;;;;;;;4.68;0.85;;;;;;;8.91;100.00;100503.59;6199858;28;20050;-80
2022/01/03 03:37:17;;;;;;;0.63;0.40;;;;;;;8.89;100.00;100520.22;6197326;28;20539;-78
2022/01/03 03:40:20;;;;;;;1.75;0.77;;;;;;;8.81;100.00;100518.88;6193417;28;20062;-79
2022/01/03 03:43:22;;;;;;;0.17;0.17;;;;;;;8.79;100.00;100508.50;6188605;28;20051;-80
2022/01/03 03:46:24;;;;;;;0.88;0.40;;;;;;;8.77;100.00;100518.22;6183101;28;20057;-79
2022/01/03 03:49:25;;;;;;;2.80;0.43;;;;;;;8.75;100.00;100512.19;6187563;28;20057;-79
2022/01/03 03:52:28;;;;;;;4.80;1.48;;;;;;;8.92;100.00;100513.97;6195030;28;20513;-80
2022/01/03 03:55:31;;;;;;;4.05;0.60;;;;;;;8.97;100.00;100508.50;6201434;28;20425;-80
2022/01/03 03:58:33;;;;;;;4.30;0.60;;;;;;;8.93;100.00;100510.44;6190778;28;20042;-79
2022/01/03 04:01:34;;;;;;;0.40;0.40;;;;;;;8.86;100.00;100520.38;6178225;28;20055;-79
2022/01/03 04:04:36;;;;;;;3.80;0.60;;;;;;;8.88;100.00;100520.28;6178802;28;20073;-78
2022/01/03 04:07:39;;;;;;;3.55;0.63;;;;;;;8.97;100.00;100524.22;6179287;28;20458;-79
2022/01/03 04:10:40;;;;;;;9.85;1.15;;;;;;;8.98;100.00;100526.75;6188365;28;20058;-78
2022/01/03 04:13:42;;;;;;;0.70;0.70;;;;;;;9.04;100.00;100525.63;6202891;28;20054;-80
2022/01/03 04:16:43;;;;;;;1.95;0.90;;;;;;;9.02;100.00;100517.81;6203057;28;20054;-79
2022/01/03 04:19:44;;;;;;;4.22;1.02;;;;;;;9.07;100.00;100518.44;6202856;28;20054;-79
2022/01/03 04:22:47;;;;;;;4.97;1.15;;;;;;;9.04;100.00;100518.59;6203282;28;20046;-80
2022/01/03 04:25:50;;;;;;;0.60;0.55;;;;;;;8.85;100.00;100513.41;6204891;28;20568;-80
2022/01/03 04:28:52;;;;;;;5.05;0.77;;;;;;;8.78;100.00;100516.44;6183977;28;20051;-78
2022/01/03 04:31:53;;;;;;;1.58;0.73;;;;;;;8.75;100.00;100506.09;6179046;28;20051;-79
2022/01/03 04:34:54;;;;;;;0.80;0.60;;;;;;;8.82;100.00;100513.59;6178749;28;20392;-77
2022/01/03 04:37:57;;;;;;;4.40;1.45;;;;;;;8.89;100.00;100514.97;6179753;28;20131;-79
2022/01/03 04:40:58;;;;;;;2.05;0.57;;;;;;;8.92;100.00;100513.97;6178682;28;20051;-78
2022/01/03 04:44:00;;;;;;;2.58;0.88;;;;;;;8.94;100.00;100512.13;6179580;28;20058;-79
2022/01/03 04:47:02;;;;;;;5.97;1.63;;;;;;;8.97;100.00;100514.59;6180663;28;20130;-79
2022/01/03 04:50:04;;;;;;;5.93;1.00;;;;;;;8.94;100.00;100516.50;6181011;28;20061;-79
2022/01/03 04:53:07;;;;;;;5.90;1.88;;;;;;;8.97;100.00;100522.44;6181360;28;20047;-79
2022/01/03 04:56:09;;;;;;;3.40;0.40;;;;;;;8.95;100.00;100521.69;6180648;28;20058;-79
2022/01/03 04:59:11;;;;;;;2.72;0.55;;;;;;;9.01;100.00;100515.28;6156571;28;20066;-79
2022/01/03 05:02:12;;;;;;;2.97;0.60;;;;;;;8.88;100.00;100525.53;6156679;29;20051;-78
2022/01/03 05:05:14;;;;;;;7.05;1.20;;;;;;;8.87;100.00;100521.22;6159453;29;20419;-79
2022/01/03 05:08:16;;;;;;;4.30;1.00;;;;;;;8.86;100.00;100527.41;6158290;28;20114;-78
2022/01/03 05:11:18;;;;;;;5.38;1.27;;;;;;;8.95;100.00;100529.56;6156550;29;20062;-78
2022/01/03 05:14:19;;;;;;;5.28;1.05;;;;;;;9.00;100.00;100527.56;6156934;28;20055;-80
2022/01/03 05:17:20;;;;;;;5.68;2.08;;;;;;;9.10;100.00;100526.16;6155870;28;20047;-79
2022/01/03 05:20:22;;;;;;;2.28;1.45;;;;;;;9.08;100.00;100521.91;6159256;28;20051;-79
2022/01/03 05:23:25;;;;;;;3.22;0.82;;;;;;;9.09;100.00;100516.59;6162112;28;20434;-78
2022/01/03 05:26:26;;;;;;;9.00;1.15;;;;;;;9.02;100.00;100517.81;6169584;28;20047;-78
2022/01/03 05:29:28;;;;;;;5.75;1.08;;;;;;;9.05;100.00;100522.06;6176767;28;20458;-78
2022/01/03 05:32:29;;;;;;;4.95;0.40;;;;;;;9.03;100.00;100516.88;6177015;28;20396;-79
2022/01/03 05:35:31;;;;;;;5.40;1.60;;;;;;;8.96;100.00;100515.53;6173312;28;20066;-78
2022/01/03 05:38:34;;;;;;;5.93;1.38;;;;;;;8.99;100.00;100531.06;6176713;28;20495;-79
2022/01/03 05:41:36;;;;;;;6.20;0.75;;;;;;;8.92;100.00;100518.38;6180788;28;20046;-79
2022/01/03 05:44:37;;;;;;;3.30;0.90;;;;;;;8.68;100.00;100528.31;6187522;28;20057;-79
2022/01/03 05:47:39;;;;;;;4.72;0.90;;;;;;;8.53;100.00;100535.13;6187034;28;20417;-78
2022/01/03 05:50:40;;;;;;;4.90;0.82;;;;;;;8.37;100.00;100532.41;6183902;28;20526;-77
2022/01/03 05:53:43;;;;;;;6.47;1.10;;;;;;;8.23;100.00;100521.69;6190497;28;20058;-77
2022/01/03 05:56:44;;;;;;;7.07;1.13;;;;;;;8.09;100.00;100538.91;6179582;28;20042;-77
2022/01/03 05:59:46;;;;;;;9.27;1.23;;;;;;;8.05;100.00;100533.88;6187951;28;20062;-78
2022/01/03 06:02:53;;;;;;;8.73;1.33;;;;;;;8.00;100.00;100538.47;6186454;28;20047;-77
2022/01/03 06:06:16;;;;;;;2.80;0.80;;;;;;;7.96;100.00;100529.06;6185711;28;20142;-77
2022/01/03 06:09:19;;;;;;;5.03;0.80;;;;;;;7.97;100.00;100534.22;6193274;28;20047;-77
2022/01/03 06:12:20;;;;;;;7.63;1.23;;;;;;;7.96;100.00;100531.69;6195128;28;20057;-76
2022/01/03 06:15:24;;;;;;;4.15;1.52;;;;;;;7.96;100.00;100526.44;6188138;28;20493;-76
2022/01/03 06:18:25;;;;;;;4.25;0.60;;;;;;;8.16;100.00;100541.22;6203840;28;20046;-77
2022/01/03 06:21:27;;;;;;;2.78;0.57;;;;;;;8.22;100.00;100536.56;6203505;28;20051;-77
2022/01/03 06:24:29;;;;;;;5.35;1.15;;;;;;;8.19;100.00;100535.84;6190322;28;20047;-77
2022/01/03 06:27:31;;;;;;;4.55;0.98;;;;;;;8.24;100.00;100536.47;6174665;28;20047;-77
2022/01/03 06:30:32;;;;;;;3.17;0.90;;;;;;;8.33;100.00;100541.28;6177523;28;20061;-76
2022/01/03 06:33:33;;;;;;;5.88;1.25;;;;;;;8.30;100.00;100541.41;6181201;28;20058;-77
2022/01/03 06:36:35;;;;;;;2.70;0.60;;;;;;;8.33;100.00;100530.81;6173044;28;20047;-77
2022/01/03 06:39:37;;;;;;;2.95;1.35;;;;;;;8.48;100.00;100542.34;6168189;28;20047;-76
2022/01/03 06:42:39;;;;;;;15.48;1.05;;;;;;;8.52;100.00;100536.03;6166287;28;20055;-76
2022/01/03 06:45:40;;;;;;;1.00;0.70;;;;;;;8.47;100.00;100538.03;6170437;28;20051;-77
2022/01/03 06:48:43;;;;;;;4.35;0.70;;;;;;;8.58;100.00;100538.34;6166955;28;20055;-77
2022/01/03 06:51:44;;;;;;;4.63;1.00;;;;;;;8.68;100.00;100541.41;6168796;28;20576;-77
2022/01/03 06:54:47;;;;;;;5.82;0.80;;;;;;;8.69;100.00;100535.22;6167865;28;20055;-76
2022/01/03 06:57:49;;;;;;;6.53;1.10;;;;;;;8.62;100.00;100543.38;6167423;28;20530;-76
2022/01/03 07:00:50;;;;;;;2.20;0.90;;;;;;;8.62;100.00;100542.53;6183736;28;20051;-77
2022/01/03 07:03:51;;;;;;;3.13;0.90;;;;;;;8.58;100.00;100540.97;6181262;28;20050;-76
2022/01/03 07:06:53;;;;;;;4.53;1.00;;;;;;;8.57;100.00;100541.91;6186897;28;20062;-77
2022/01/03 07:09:55;;;;;;;9.70;1.63;;;;;;;8.59;100.00;100543.53;6194003;28;20422;-77
2022/01/03 07:12:59;;;;;;;6.70;1.35;;;;;;;8.75;100.00;100540.16;6187257;28;20143;-77
2022/01/03 07:19:19;;;;;;;6.47;1.15;;;;;;;8.72;100.00;100549.03;6187043;28;20054;-77
2022/01/03 07:22:21;;;;;;;6.65;1.33;;;;;;;8.63;100.00;100547.72;6163447;28;20058;-77
2022/01/03 07:25:24;;;;;;;4.20;1.92;;;;;;;8.66;100.00;100557.19;6164550;28;20047;-77
2022/01/03 07:28:25;;;;;;;3.40;1.00;;;;;;;8.57;100.00;100549.75;6183356;28;20047;-77
2022/01/03 07:31:27;;;;;;;5.57;1.25;;;;;;;8.59;100.00;100555.78;6178588;28;20053;-77
2022/01/03 07:34:28;;;;;;;9.60;0.80;;;;;;;8.61;100.00;100553.94;6187124;28;20062;-77
2022/01/03 07:37:29;;;;;;;4.75;0.93;;;;;;;8.59;100.00;100559.25;6202307;28;20399;-77
2022/01/03 07:40:32;;;;;;;11.50;1.05;;;;;;;8.63;100.00;100555.56;6193924;28;20054;-77
2022/01/03 07:43:33;;;;;;;1.55;0.60;;;;;;;8.64;100.00;100559.03;6201704;28;20421;-77
2022/01/03 07:46:35;;;;;;;5.47;1.20;;;;;;;8.67;100.00;100558.88;6201494;28;20134;-77
2022/01/03 07:49:36;;;;;;;9.02;1.10;;;;;;;8.70;100.00;100552.66;6191616;28;20063;-78
2022/01/03 07:52:38;;;;;;;7.47;0.80;;;;;;;8.70;100.00;100545.63;6185644;28;20047;-77
2022/01/03 07:55:41;;;;;;;6.97;1.00;;;;;;;8.72;100.00;100545.53;6153995;28;20055;-77
2022/01/03 07:58:42;;;;;;;3.30;0.95;;;;;;;8.68;100.00;100544.88;6152751;29;20047;-77
2022/01/03 08:01:44;;;;;;;5.10;1.05;;;;;;;8.73;100.00;100548.09;6152911;28;20055;-77
2022/01/03 08:04:45;;;;;;;10.43;2.45;;;;;;;8.75;100.00;100556.72;6153527;28;20062;-76
2022/01/03 08:07:47;;;;;;;7.20;1.63;;;;;;;8.79;100.00;100544.34;6167522;28;20046;-79
2022/01/03 08:10:49;;;;;;;15.88;1.30;;;;;;;8.80;100.00;100553.88;6189235;28;20065;-79
2022/01/03 08:13:51;;;;;;;9.10;1.20;;;;;;;8.77;100.00;100554.06;6181916;28;20062;-80
2022/01/03 08:16:52;;;;;;;5.80;1.00;;;;;;;8.81;100.00;100560.81;6178448;28;20055;-79
2022/01/03 08:19:53;;;;;;;6.57;1.13;;;;;;;8.85;100.00;100554.50;6178098;28;20054;-79
2022/01/03 08:22:55;;;;;;;7.80;0.98;;;;;;;8.87;100.00;100560.53;6179837;28;20643;-79
2022/01/03 08:25:57;;;;;;;1.98;0.77;;;;;;;8.92;100.00;100560.31;6179028;28;20051;-79
2022/01/03 08:28:59;;;;;;;2.70;0.90;;;;;;;8.89;100.00;100559.50;6178102;28;20051;-79
2022/01/03 08:32:00;;;;;;;0.77;0.50;;;;;;;8.93;100.00;100559.38;6177579;28;20058;-80
2022/01/03 08:35:01;;;;;;;2.63;0.82;;;;;;;8.99;100.00;100564.28;6178355;28;20418;-79
2022/01/03 08:38:04;;;;;;;5.43;1.17;;;;;;;9.01;100.00;100557.22;6177737;28;20062;-79
2022/01/03 08:41:07;;;;;;;8.02;1.23;;;;;;;8.98;100.00;100546.88;6174821;28;20050;-79
2022/01/03 08:44:09;;;;;;;3.55;1.33;;;;;;;8.95;100.00;100563.63;6176425;28;20051;-81
2022/01/03 08:47:10;;;;;;;8.25;2.25;;;;;;;9.02;100.00;100574.66;6177244;28;20059;-78
2022/01/03 08:50:15;;;;;;;6.47;0.70;;;;;;;9.05;100.00;100570.09;6177144;28;20058;-79
2022/01/03 08:53:17;;;;;;;6.47;1.35;;;;;;;9.09;100.00;100570.81;6164305;28;20047;-80
2022/01/03 08:56:20;;;;;;;7.50;1.05;;;;;;;8.99;100.00;100575.63;6173872;28;20495;-78
2022/01/03 08:59:21;;;;;;;2.72;1.27;;;;;;;9.05;100.00;100574.50;6172246;28;20055;-79
2022/01/03 09:02:22;;;;;;;6.00;1.17;;;;;;;8.97;100.00;100569.63;6177927;28;20518;-79
2022/01/03 09:05:24;;;;;;;7.75;1.45;;;;;;;9.02;100.00;100554.53;6177859;28;20123;-79
2022/01/03 09:08:25;;;;;;;6.57;1.20;;;;;;;9.07;100.00;100559.53;6171141;28;20051;-83
2022/01/03 09:11:28;;;;;;;3.05;0.82;;;;;;;9.11;100.00;100561.91;6174255;28;20055;-80
2022/01/03 09:14:29;;;;;;;6.22;1.52;;;;;;;9.06;100.00;100568.31;6178069;28;20073;-79
2022/01/03 09:17:31;;;;;;;1.65;0.90;;;;;;;9.07;100.00;100564.78;6176550;28;20043;-80
2022/01/03 09:20:32;;;;;;;8.70;1.65;;;;;;;9.15;100.00;100554.75;6156698;28;20051;-79
2022/01/03 09:23:38;;;;;;;7.03;1.73;;;;;;;9.19;100.00;100556.31;6179526;28;20051;-82
2022/01/03 09:30:02;;;;;;;5.95;1.55;;;;;;;9.34;100.00;100552.88;6189418;28;20054;-83
2022/01/03 09:33:04;;;;;;;7.22;1.02;;;;;;;9.32;100.00;100552.13;6195167;28;20055;-81
2022/01/03 09:36:05;;;;;;;6.25;1.70;;;;;;;9.35;100.00;100559.81;6184518;28;20189;-79
2022/01/03 09:39:07;;;;;;;5.03;1.15;;;;;;;9.42;100.00;100560.38;6190375;28;20046;-81
2022/01/03 09:42:14;;;;;;;8.10;1.33;;;;;;;9.36;100.00;100558.91;6181126;28;20133;-83
2022/01/03 09:45:16;;;;;;;4.65;1.85;;;;;;;9.23;100.00;100552.59;6178298;28;20427;-78
2022/01/03 09:48:18;;;;;;;3.95;2.22;;;;;;;9.23;100.00;100555.22;6174743;28;20133;-78
2022/01/03 09:51:24;;;;;;;2.67;1.13;;;;;;;9.23;100.00;100554.38;6160435;28;20062;-78
2022/01/03 09:54:25;;;;;;;5.95;1.42;;;;;;;9.26;100.00;100552.41;6151751;29;20051;-78
2022/01/03 09:57:30;;;;;;;3.72;0.90;;;;;;;9.27;100.00;100561.16;6153519;29;20466;-79
2022/01/03 10:00:32;;;;;;;3.33;1.88;;;;;;;9.35;100.00;100561.59;6168608;28;20057;-81
2022/01/03 10:03:35;;;;;;;9.18;1.85;;;;;;;9.33;100.00;100553.81;6183641;28;20065;-80
2022/01/03 10:06:36;;;;;;;7.80;1.30;;;;;;;9.40;100.00;100541.22;6189047;28;20047;-80
2022/01/03 10:09:38;;;;;;;4.65;1.58;;;;;;;9.42;100.00;100543.78;6184291;28;20043;-80
2022/01/03 10:12:41;;;;;;;6.53;1.20;;;;;;;9.47;100.00;100537.38;6190043;28;20053;-80
2022/01/03 10:15:43;;;;;;;1.20;0.90;;;;;;;9.47;100.00;100533.91;6189237;28;20114;-81
2022/01/03 10:18:47;;;;;;;12.75;1.50;;;;;;;9.51;100.00;100524.94;6184403;28;20502;-80
2022/01/03 10:21:50;;;;;;;2.95;0.98;;;;;;;9.58;100.00;100537.69;6189829;28;20046;-79
2022/01/03 10:24:52;;;;;;;3.33;1.10;;;;;;;9.60;100.00;100527.09;6183847;28;20050;-79
2022/01/03 10:27:59;;;;;;;3.78;1.02;;;;;;;9.68;100.00;100524.91;6181472;28;20061;-80
2022/01/03 10:31:00;;;;;;;10.95;2.00;;;;;;;9.71;100.00;100537.84;6180535;28;20058;-80
2022/01/03 10:34:06;;;;;;;2.95;1.40;;;;;;;9.74;100.00;100521.94;6174203;28;20051;-78
2022/01/03 10:37:13;;;;;;;4.22;0.80;;;;;;;9.66;100.00;100524.13;6174894;28;20050;-79
2022/01/03 10:40:20;;;;;;;3.15;1.30;;;;;;;9.71;100.00;100508.97;6179772;28;20061;-78
2022/01/03 10:43:23;;;;;;;7.78;1.02;;;;;;;9.64;100.00;100518.13;6182056;28;20058;-80
2022/01/03 10:46:28;;;;;;;4.40;1.30;;;;;;;9.63;100.00;100524.31;6183861;28;20054;-80
2022/01/03 10:49:30;;;;;;;3.90;1.10;;;;;;;9.69;100.00;100523.97;6181896;28;20051;-79
2022/01/03 10:52:40;;;;;;;3.83;0.93;;;;;;;9.64;100.00;100512.88;6181225;28;20047;-78
2022/01/03 10:55:41;;;;;;;0.85;0.60;;;;;;;9.68;100.00;100511.78;6178382;28;20418;-78
2022/01/03 10:58:44;;;;;;;2.28;0.80;;;;;;;9.65;100.00;100510.16;6172003;28;20050;-79
2022/01/03 11:01:47;;;;;;;10.65;1.50;;;;;;;9.75;100.00;100517.53;6178202;28;20053;-78
2022/01/03 11:04:52;;;;;;;3.40;0.98;;;;;;;9.76;100.00;100503.50;6178269;28;20059;-79
2022/01/03 11:11:34;;;;;;;9.35;1.60;;;;;;;9.78;100.00;100499.88;6180006;28;20055;-79
2022/01/03 11:14:39;;;;;;;8.68;1.45;;;;;;;9.85;100.00;100490.72;6181072;28;20509;-81
2022/01/03 11:17:41;;;;;;;5.00;0.95;;;;;;;9.87;100.00;100480.16;6178913;28;20181;-80
2022/01/03 11:20:44;;;;;;;4.53;1.20;;;;;;;9.81;100.00;100490.97;6180493;28;20137;-80
2022/01/03 11:23:49;;;;;;;1.70;0.98;;;;;;;9.68;100.00;100477.69;6182182;28;20047;-79
2022/01/03 11:26:50;;;;;;;2.80;0.80;;;;;;;9.61;100.00;100482.41;6180654;28;20061;-78
2022/01/03 11:29:53;;;;;;;6.00;1.10;;;;;;;9.56;100.00;100473.09;6192018;28;20054;-77
2022/01/03 11:32:56;;;;;;;8.02;1.02;;;;;;;9.59;100.00;100480.81;6190909;28;20069;-79
2022/01/03 11:35:59;;;;;;;3.15;1.27;;;;;;;9.64;100.00;100478.78;6192424;28;20054;-80
2022/01/03 11:39:05;;;;;;;2.25;0.85;;;;;;;9.72;100.00;100479.22;6177059;28;20410;-81
2022/01/03 11:42:09;;;;;;;2.78;1.02;;;;;;;9.78;100.00;100472.78;6180076;28;20073;-79
2022/01/03 11:45:12;;;;;;;5.13;0.75;;;;;;;9.80;100.00;100466.50;6180808;28;20526;-78
2022/01/03 11:48:14;;;;;;;3.17;1.20;;;;;;;9.84;100.00;100457.53;6170451;28;20524;-78
2022/01/03 11:51:15;;;;;;;3.45;0.63;;;;;;;9.84;100.00;100452.28;6169886;28;20051;-77
2022/01/03 11:54:19;;;;;;;1.52;1.02;;;;;;;9.95;100.00;100450.84;6171538;28;20047;-77
2022/01/03 11:57:29;;;;;;;5.47;1.65;;;;;;;9.93;100.00;100447.47;6172006;28;20065;-77
2022/01/03 12:03:51;;;;;;;1.05;0.73;;;;;;;10.06;100.00;100440.59;6176747;28;19922;-78
2022/01/03 12:07:12;;;;;;;5.45;1.02;;;;;;;10.07;100.00;100437.03;6175155;28;20046;-78
2022/01/03 12:10:15;;;;;;;3.97;1.02;;;;;;;10.03;100.00;100431.09;6179557;28;20050;-77
2022/01/03 12:13:16;;;;;;;2.15;0.77;;;;;;;10.12;100.00;100435.00;6176348;28;20054;-76
2022/01/03 12:16:20;;;;;;;2.05;1.13;;;;;;;10.20;100.00;100431.94;6183685;28;20050;-77
2022/01/03 12:19:30;;;;;;;2.90;1.17;;;;;;;10.31;100.00;100430.44;6183811;28;20054;-78
2022/01/03 12:22:48;;;;;;;7.60;1.10;;;;;;;10.21;100.00;100425.75;6200427;28;20053;-78
2022/01/03 12:26:07;;;;;;;7.82;1.35;;;;;;;10.10;100.00;100413.25;6203245;28;20045;-77
2022/01/03 12:29:10;;;;;;;;;;;;;;;10.05;100.00;100410.03;6203642;28;20074;-78
2022/01/03 12:32:15;;;;;;;5.57;1.23;;;;;;;10.09;100.00;100408.94;6201435;28;19922;-77
2022/01/03 12:35:20;;;;;;;8.48;1.00;;;;;;;10.07;100.00;100411.63;6198215;28;20047;-79
2022/01/03 12:38:29;;;;;;;3.67;1.02;;;;;;;10.23;100.00;100414.25;6201746;28;20070;-79
2022/01/03 12:41:47;;;;;;;2.17;1.13;;;;;;;10.22;100.00;100417.81;6204809;28;20031;-81
2022/01/03 12:44:53;;;;;;;3.97;1.45;;;;;;;10.15;100.00;100401.53;6201182;28;20098;-82
2022/01/03 12:48:15;;;;;;;1.25;0.73;;;;;;;10.18;100.00;100390.03;6179007;28;20079;-82
2022/01/03 12:51:17;;;;;;;10.43;0.88;;;;;;;10.09;100.00;100385.31;6165245;28;20050;-82
2022/01/03 12:54:40;;;;;;;4.07;1.02;;;;;;;9.94;100.00;100394.88;6180648;28;20131;-81
2022/01/03 12:57:41;;;;;;;5.55;1.27;;;;;;;9.81;100.00;100388.63;6180404;28;20058;-81
2022/01/03 13:00:45;;;;;;;1.55;1.00;;;;;;;9.77;100.00;100387.97;6179089;28;20051;-80
2022/01/03 13:03:50;;;;;;;5.50;1.13;;;;;;;9.72;100.00;100382.13;6178136;28;20491;-79
2022/01/03 13:06:51;;;;;;;1.60;0.93;;;;;;;9.80;100.00;100374.66;6181261;28;20114;-81
2022/01/03 13:09:53;;;;;;;2.05;0.70;;;;;;;9.89;100.00;100383.78;6184800;28;20050;-81
2022/01/03 13:12:54;;;;;;;6.07;1.33;;;;;;;9.99;100.00;100391.97;6183286;28;20046;-80
2022/01/03 13:15:56;;;;;;;2.88;1.15;;;;;;;10.05;99.80;100376.75;6187347;28;20054;-80
2022/01/03 13:19:00;;;;;;;4.97;1.38;;;;;;;10.19;99.40;100375.09;6181806;28;20042;-81
2022/01/03 13:22:04;;;;;;;6.75;1.13;;;;;;;10.18;97.86;100361.13;6179701;28;20061;-80
2022/01/03 13:25:06;;;;;;;0.80;0.80;;;;;;;10.22;98.49;100364.41;6176282;28;20054;-80
2022/01/03 13:28:11;;;;;;;1.55;1.05;;;;;;;10.18;98.26;100369.03;6177403;28;20047;-80
2022/01/03 13:31:12;;;;;;;6.05;0.88;;;;;;;10.08;98.06;100359.97;6200566;28;20050;-82
2022/01/03 13:34:15;;;;;;;2.60;0.90;;;;;;;10.00;98.31;100354.31;6188835;28;20058;-78
2022/01/03 13:37:17;;;;;;;3.53;0.73;;;;;;;9.97;98.64;100360.59;6179082;28;20403;-80
2022/01/03 13:40:22;;;;;;;6.78;0.73;;;;;;;9.94;99.16;100352.03;6184146;28;20053;-82
2022/01/03 13:43:29;;;;;;;10.45;1.38;;;;;;;9.85;99.19;100361.25;6200894;28;20418;-79
2022/01/03 13:49:52;;;;;;;7.75;1.48;;;;;;;9.77;100.00;100359.09;6178467;28;20050;-77
2022/01/03 13:52:55;;;;;;;3.38;0.90;;;;;;;9.76;100.00;100359.16;6190426;28;20047;-78
2022/01/03 13:55:57;;;;;;;5.50;1.10;;;;;;;9.67;100.00;100355.28;6180428;28;20418;-77
2022/01/03 13:59:00;;;;;;;3.25;0.90;;;;;;;9.72;100.00;100352.38;6175474;28;20051;-78
2022/01/03 14:02:04;;;;;;;8.13;1.20;;;;;;;9.66;100.00;100353.59;6176188;28;20131;-78
2022/01/03 14:05:08;;;;;;;6.80;0.85;;;;;;;9.68;100.00;100345.66;6178593;28;20526;-79
2022/01/03 14:08:10;;;;;;;3.13;0.82;;;;;;;9.72;100.00;100355.00;6176818;28;20054;-79
2022/01/03 14:11:13;;;;;;;5.13;0.60;;;;;;;9.72;100.00;100357.63;6178798;28;20098;-80
2022/01/03 14:14:16;;;;;;;5.10;1.25;;;;;;;9.78;100.00;100350.28;6164619;28;20483;-78
2022/01/03 14:17:18;;;;;;;9.23;1.05;;;;;;;9.79;100.00;100332.75;6164453;28;20056;-77
2022/01/03 14:20:21;;;;;;;4.63;0.82;;;;;;;9.77;100.00;100338.09;6167175;28;20047;-79
2022/01/03 14:23:26;;;;;;;7.13;1.00;;;;;;;9.79;100.00;100330.13;6162775;28;20419;-80
2022/01/03 14:26:29;;;;;;;5.20;0.90;;;;;;;9.86;100.00;100321.00;6165161;28;20050;-78
2022/01/03 14:29:35;;;;;;;1.80;0.93;;;;;;;9.88;99.61;100319.94;6175317;28;20043;-79